sensor_id;sensor_type;location;lat;lon;timestamp;P1;durP1;ratioP1;P2;durP2;ratioP2
35558;SDS011;21661;50.794;-1.066;2022-12-29T00:01:56;23.95;;;3.75;;
35558;SDS011;21661;50.794;-1.066;2022-12-29T00:04:21;27.35;;;3.95;;
35558;SDS011;21661;50.794;-1.066;2022-12-29T00:06:47;25.55;;;4.75;;
35558;SDS011;21661;50.794;-1.066;2022-12-29T00:09:13;33.08;;;4.40;;
35558;SDS011;21661;50.794;-1.066;2022-12-29T00:11:40;23.30;;;3.67;;
35558;SDS011;21661;50.794;-1.066;2022-12-29T00:14:08;24.50;;;4.55;;
35558;SDS011;21661;50.794;-1.066;2022-12-29T00:16:53;35.67;;;4.00;;
35558;SDS011;21661;50.794;-1.066;2022-12-29T00:19:18;25.63;;;4.13;;
35558;SDS011;21661;50.794;-1.066;2022-12-29T00:22:02;35.17;;;4.75;;
35558;SDS011;21661;50.794;-1.066;2022-12-29T00:24:47;31.65;;;4.00;;
35558;SDS011;21661;50.794;-1.066;2022-12-29T00:27:18;30.80;;;6.22;;
35558;SDS011;21661;50.794;-1.066;2022-12-29T00:30:07;29.15;;;4.30;;
35558;SDS011;21661;50.794;-1.066;2022-12-29T00:32:53;29.50;;;4.03;;
35558;SDS011;21661;50.794;-1.066;2022-12-29T00:35:50;40.88;;;5.25;;
35558;SDS011;21661;50.794;-1.066;2022-12-29T00:41:02;36.40;;;5.00;;
35558;SDS011;21661;50.794;-1.066;2022-12-29T00:43:47;34.22;;;5.40;;
35558;SDS011;21661;50.794;-1.066;2022-12-29T00:46:31;43.00;;;4.53;;
35558;SDS011;21661;50.794;-1.066;2022-12-29T00:49:00;32.80;;;5.35;;
35558;SDS011;21661;50.794;-1.066;2022-12-29T00:51:45;31.92;;;4.13;;
35558;SDS011;21661;50.794;-1.066;2022-12-29T00:54:11;31.63;;;4.55;;
35558;SDS011;21661;50.794;-1.066;2022-12-29T00:56:37;28.52;;;4.40;;
35558;SDS011;21661;50.794;-1.066;2022-12-29T00:59:04;27.63;;;4.32;;
35558;SDS011;21661;50.794;-1.066;2022-12-29T01:01:32;25.73;;;3.63;;
35558;SDS011;21661;50.794;-1.066;2022-12-29T01:03:58;18.02;;;2.80;;
35558;SDS011;21661;50.794;-1.066;2022-12-29T01:06:24;22.63;;;3.53;;
35558;SDS011;21661;50.794;-1.066;2022-12-29T01:08:50;27.45;;;3.55;;
35558;SDS011;21661;50.794;-1.066;2022-12-29T01:11:36;32.10;;;4.07;;
35558;SDS011;21661;50.794;-1.066;2022-12-29T01:14:03;23.48;;;4.18;;
35558;SDS011;21661;50.794;-1.066;2022-12-29T01:16:30;28.83;;;5.35;;
35558;SDS011;21661;50.794;-1.066;2022-12-29T01:18:55;29.05;;;4.28;;
35558;SDS011;21661;50.794;-1.066;2022-12-29T01:21:21;38.83;;;6.68;;
35558;SDS011;21661;50.794;-1.066;2022-12-29T01:23:46;39.33;;;4.93;;
35558;SDS011;21661;50.794;-1.066;2022-12-29T01:26:13;33.55;;;4.10;;
35558;SDS011;21661;50.794;-1.066;2022-12-29T01:28:39;37.90;;;7.03;;
35558;SDS011;21661;50.794;-1.066;2022-12-29T01:31:06;30.63;;;5.25;;
35558;SDS011;21661;50.794;-1.066;2022-12-29T01:33:33;33.78;;;5.45;;
35558;SDS011;21661;50.794;-1.066;2022-12-29T01:36:05;40.75;;;6.18;;
35558;SDS011;21661;50.794;-1.066;2022-12-29T01:38:35;29.52;;;5.38;;
35558;SDS011;21661;50.794;-1.066;2022-12-29T01:41:02;43.92;;;6.88;;
35558;SDS011;21661;50.794;-1.066;2022-12-29T01:43:38;40.42;;;5.13;;
35558;SDS011;21661;50.794;-1.066;2022-12-29T01:46:04;34.25;;;5.93;;
35558;SDS011;21661;50.794;-1.066;2022-12-29T01:48:32;34.17;;;4.57;;
35558;SDS011;21661;50.794;-1.066;2022-12-29T01:50:58;34.90;;;4.72;;
35558;SDS011;21661;50.794;-1.066;2022-12-29T01:53:27;30.63;;;4.95;;
35558;SDS011;21661;50.794;-1.066;2022-12-29T01:55:59;36.22;;;5.22;;
35558;SDS011;21661;50.794;-1.066;2022-12-29T01:58:29;34.92;;;5.85;;
35558;SDS011;21661;50.794;-1.066;2022-12-29T02:00:59;33.80;;;6.20;;
35558;SDS011;21661;50.794;-1.066;2022-12-29T02:03:25;27.13;;;5.25;;
35558;SDS011;21661;50.794;-1.066;2022-12-29T02:08:21;33.75;;;6.63;;
35558;SDS011;21661;50.794;-1.066;2022-12-29T02:10:49;33.85;;;6.45;;
35558;SDS011;21661;50.794;-1.066;2022-12-29T02:13:15;48.00;;;5.45;;
35558;SDS011;21661;50.794;-1.066;2022-12-29T02:18:52;33.10;;;5.53;;
35558;SDS011;21661;50.794;-1.066;2022-12-29T02:21:45;34.72;;;4.68;;
35558;SDS011;21661;50.794;-1.066;2022-12-29T02:29:46;28.60;;;4.90;;
35558;SDS011;21661;50.794;-1.066;2022-12-29T02:32:36;38.17;;;5.78;;
35558;SDS011;21661;50.794;-1.066;2022-12-29T02:40:40;36.90;;;6.32;;
35558;SDS011;21661;50.794;-1.066;2022-12-29T02:43:23;40.35;;;6.32;;
35558;SDS011;21661;50.794;-1.066;2022-12-29T02:48:43;43.38;;;6.00;;
35558;SDS011;21661;50.794;-1.066;2022-12-29T02:51:27;41.72;;;6.63;;
35558;SDS011;21661;50.794;-1.066;2022-12-29T02:53:58;34.70;;;6.20;;
35558;SDS011;21661;50.794;-1.066;2022-12-29T02:56:42;35.50;;;5.05;;
35558;SDS011;21661;50.794;-1.066;2022-12-29T02:59:08;30.30;;;5.05;;
35558;SDS011;21661;50.794;-1.066;2022-12-29T03:01:43;34.40;;;5.07;;
35558;SDS011;21661;50.794;-1.066;2022-12-29T03:04:53;31.45;;;5.68;;
35558;SDS011;21661;50.794;-1.066;2022-12-29T03:18:57;37.33;;;6.63;;
35558;SDS011;21661;50.794;-1.066;2022-12-29T03:21:44;36.65;;;5.60;;
35558;SDS011;21661;50.794;-1.066;2022-12-29T03:24:34;33.35;;;7.00;;
35558;SDS011;21661;50.794;-1.066;2022-12-29T03:27:04;32.80;;;6.33;;
35558;SDS011;21661;50.794;-1.066;2022-12-29T03:29:33;31.63;;;5.13;;
35558;SDS011;21661;50.794;-1.066;2022-12-29T03:32:04;33.53;;;4.70;;
35558;SDS011;21661;50.794;-1.066;2022-12-29T03:34:31;36.70;;;5.88;;
35558;SDS011;21661;50.794;-1.066;2022-12-29T03:37:04;39.40;;;5.82;;
35558;SDS011;21661;50.794;-1.066;2022-12-29T03:39:36;37.17;;;6.65;;
35558;SDS011;21661;50.794;-1.066;2022-12-29T03:42:03;32.85;;;5.80;;
35558;SDS011;21661;50.794;-1.066;2022-12-29T03:47:04;40.77;;;6.13;;
35558;SDS011;21661;50.794;-1.066;2022-12-29T03:49:31;40.53;;;6.35;;
35558;SDS011;21661;50.794;-1.066;2022-12-29T03:51:56;36.30;;;6.18;;
35558;SDS011;21661;50.794;-1.066;2022-12-29T03:54:22;36.53;;;6.05;;
35558;SDS011;21661;50.794;-1.066;2022-12-29T03:56:47;35.00;;;5.25;;
35558;SDS011;21661;50.794;-1.066;2022-12-29T03:59:13;29.90;;;4.85;;
35558;SDS011;21661;50.794;-1.066;2022-12-29T04:01:39;47.08;;;6.75;;
35558;SDS011;21661;50.794;-1.066;2022-12-29T04:04:04;43.17;;;6.38;;
35558;SDS011;21661;50.794;-1.066;2022-12-29T04:06:30;25.73;;;5.28;;
35558;SDS011;21661;50.794;-1.066;2022-12-29T04:08:55;36.65;;;6.18;;
35558;SDS011;21661;50.794;-1.066;2022-12-29T04:11:21;28.77;;;4.45;;
35558;SDS011;21661;50.794;-1.066;2022-12-29T04:13:47;46.75;;;6.97;;
35558;SDS011;21661;50.794;-1.066;2022-12-29T04:16:13;29.02;;;4.60;;
35558;SDS011;21661;50.794;-1.066;2022-12-29T04:18:39;42.53;;;5.72;;
35558;SDS011;21661;50.794;-1.066;2022-12-29T04:21:04;35.70;;;6.88;;
35558;SDS011;21661;50.794;-1.066;2022-12-29T04:23:32;43.22;;;5.95;;
35558;SDS011;21661;50.794;-1.066;2022-12-29T04:26:02;42.67;;;6.30;;
35558;SDS011;21661;50.794;-1.066;2022-12-29T04:28:28;42.45;;;5.88;;
35558;SDS011;21661;50.794;-1.066;2022-12-29T04:30:55;52.08;;;7.20;;
35558;SDS011;21661;50.794;-1.066;2022-12-29T04:33:21;40.65;;;5.53;;
35558;SDS011;21661;50.794;-1.066;2022-12-29T04:35:47;35.97;;;5.43;;
35558;SDS011;21661;50.794;-1.066;2022-12-29T04:38:12;45.35;;;5.85;;
35558;SDS011;21661;50.794;-1.066;2022-12-29T04:40:38;39.45;;;6.63;;
35558;SDS011;21661;50.794;-1.066;2022-12-29T04:43:05;44.78;;;6.22;;
35558;SDS011;21661;50.794;-1.066;2022-12-29T04:45:31;35.42;;;5.82;;
35558;SDS011;21661;50.794;-1.066;2022-12-29T04:47:56;40.95;;;6.10;;
35558;SDS011;21661;50.794;-1.066;2022-12-29T04:50:22;35.72;;;5.70;;
35558;SDS011;21661;50.794;-1.066;2022-12-29T04:52:48;35.92;;;5.00;;
35558;SDS011;21661;50.794;-1.066;2022-12-29T04:55:13;29.50;;;4.60;;
35558;SDS011;21661;50.794;-1.066;2022-12-29T04:57:39;35.10;;;5.50;;
35558;SDS011;21661;50.794;-1.066;2022-12-29T05:00:05;25.05;;;4.60;;
35558;SDS011;21661;50.794;-1.066;2022-12-29T05:02:31;30.00;;;5.35;;
35558;SDS011;21661;50.794;-1.066;2022-12-29T05:04:57;20.33;;;4.18;;
35558;SDS011;21661;50.794;-1.066;2022-12-29T05:07:22;28.58;;;4.05;;
35558;SDS011;21661;50.794;-1.066;2022-12-29T05:09:48;26.00;;;4.20;;
35558;SDS011;21661;50.794;-1.066;2022-12-29T05:12:14;26.80;;;3.97;;
35558;SDS011;21661;50.794;-1.066;2022-12-29T05:14:39;18.45;;;3.40;;
35558;SDS011;21661;50.794;-1.066;2022-12-29T05:17:05;17.55;;;2.97;;
35558;SDS011;21661;50.794;-1.066;2022-12-29T05:19:30;20.48;;;3.55;;
35558;SDS011;21661;50.794;-1.066;2022-12-29T05:21:56;22.67;;;3.60;;
35558;SDS011;21661;50.794;-1.066;2022-12-29T05:24:21;20.10;;;3.50;;
35558;SDS011;21661;50.794;-1.066;2022-12-29T05:26:47;20.35;;;3.85;;
35558;SDS011;21661;50.794;-1.066;2022-12-29T05:29:13;17.80;;;3.25;;
35558;SDS011;21661;50.794;-1.066;2022-12-29T05:31:38;21.45;;;3.50;;
35558;SDS011;21661;50.794;-1.066;2022-12-29T05:34:04;23.08;;;3.63;;
35558;SDS011;21661;50.794;-1.066;2022-12-29T05:36:30;25.77;;;3.75;;
35558;SDS011;21661;50.794;-1.066;2022-12-29T05:38:55;19.77;;;3.05;;
35558;SDS011;21661;50.794;-1.066;2022-12-29T05:41:21;19.48;;;2.80;;
35558;SDS011;21661;50.794;-1.066;2022-12-29T05:43:47;16.15;;;3.28;;
35558;SDS011;21661;50.794;-1.066;2022-12-29T05:46:12;23.52;;;2.70;;
35558;SDS011;21661;50.794;-1.066;2022-12-29T05:48:38;18.95;;;3.15;;
35558;SDS011;21661;50.794;-1.066;2022-12-29T05:51:03;22.92;;;2.92;;
35558;SDS011;21661;50.794;-1.066;2022-12-29T05:53:29;24.13;;;4.13;;
35558;SDS011;21661;50.794;-1.066;2022-12-29T05:55:55;15.93;;;4.10;;
35558;SDS011;21661;50.794;-1.066;2022-12-29T05:58:20;20.00;;;3.13;;
35558;SDS011;21661;50.794;-1.066;2022-12-29T06:00:46;16.63;;;3.20;;
35558;SDS011;21661;50.794;-1.066;2022-12-29T06:03:12;23.13;;;4.07;;
35558;SDS011;21661;50.794;-1.066;2022-12-29T06:05:37;14.07;;;2.80;;
35558;SDS011;21661;50.794;-1.066;2022-12-29T06:08:03;17.15;;;3.03;;
35558;SDS011;21661;50.794;-1.066;2022-12-29T06:10:29;18.92;;;2.58;;
35558;SDS011;21661;50.794;-1.066;2022-12-29T06:12:54;21.27;;;2.92;;
35558;SDS011;21661;50.794;-1.066;2022-12-29T06:15:20;20.35;;;3.15;;
35558;SDS011;21661;50.794;-1.066;2022-12-29T06:17:45;19.08;;;2.78;;
35558;SDS011;21661;50.794;-1.066;2022-12-29T06:20:11;15.88;;;2.80;;
35558;SDS011;21661;50.794;-1.066;2022-12-29T06:22:37;18.90;;;2.53;;
35558;SDS011;21661;50.794;-1.066;2022-12-29T06:25:03;19.23;;;2.78;;
35558;SDS011;21661;50.794;-1.066;2022-12-29T06:27:30;13.90;;;2.30;;
35558;SDS011;21661;50.794;-1.066;2022-12-29T06:29:56;15.95;;;2.00;;
35558;SDS011;21661;50.794;-1.066;2022-12-29T06:32:21;12.23;;;1.70;;
35558;SDS011;21661;50.794;-1.066;2022-12-29T06:34:47;9.18;;;1.90;;
35558;SDS011;21661;50.794;-1.066;2022-12-29T06:37:12;18.58;;;2.33;;
35558;SDS011;21661;50.794;-1.066;2022-12-29T06:39:39;18.13;;;3.08;;
35558;SDS011;21661;50.794;-1.066;2022-12-29T06:42:05;15.43;;;2.42;;
35558;SDS011;21661;50.794;-1.066;2022-12-29T06:44:30;14.35;;;2.47;;
35558;SDS011;21661;50.794;-1.066;2022-12-29T06:46:56;23.70;;;2.55;;
35558;SDS011;21661;50.794;-1.066;2022-12-29T06:49:22;20.00;;;2.03;;
35558;SDS011;21661;50.794;-1.066;2022-12-29T06:51:48;15.35;;;1.85;;
35558;SDS011;21661;50.794;-1.066;2022-12-29T06:54:13;12.18;;;1.80;;
35558;SDS011;21661;50.794;-1.066;2022-12-29T06:56:39;13.35;;;1.77;;
35558;SDS011;21661;50.794;-1.066;2022-12-29T06:59:05;15.98;;;2.08;;
35558;SDS011;21661;50.794;-1.066;2022-12-29T07:01:30;14.30;;;2.33;;
35558;SDS011;21661;50.794;-1.066;2022-12-29T07:03:56;14.30;;;1.70;;
35558;SDS011;21661;50.794;-1.066;2022-12-29T07:06:22;16.70;;;2.28;;
35558;SDS011;21661;50.794;-1.066;2022-12-29T07:08:48;9.82;;;1.67;;
35558;SDS011;21661;50.794;-1.066;2022-12-29T07:11:14;14.55;;;2.05;;
35558;SDS011;21661;50.794;-1.066;2022-12-29T07:13:39;14.90;;;2.05;;
35558;SDS011;21661;50.794;-1.066;2022-12-29T07:16:08;16.35;;;2.92;;
35558;SDS011;21661;50.794;-1.066;2022-12-29T07:18:34;10.98;;;2.10;;
35558;SDS011;21661;50.794;-1.066;2022-12-29T07:21:01;14.48;;;2.00;;
35558;SDS011;21661;50.794;-1.066;2022-12-29T07:23:27;12.48;;;1.77;;
35558;SDS011;21661;50.794;-1.066;2022-12-29T07:26:26;19.48;;;2.53;;
35558;SDS011;21661;50.794;-1.066;2022-12-29T07:28:45;12.23;;;1.58;;
35558;SDS011;21661;50.794;-1.066;2022-12-29T07:31:17;12.43;;;1.85;;
35558;SDS011;21661;50.794;-1.066;2022-12-29T07:33:45;14.02;;;1.95;;
35558;SDS011;21661;50.794;-1.066;2022-12-29T07:36:13;15.63;;;2.10;;
35558;SDS011;21661;50.794;-1.066;2022-12-29T07:38:39;13.77;;;2.67;;
35558;SDS011;21661;50.794;-1.066;2022-12-29T07:41:05;13.05;;;2.00;;
35558;SDS011;21661;50.794;-1.066;2022-12-29T07:43:30;15.48;;;3.10;;
35558;SDS011;21661;50.794;-1.066;2022-12-29T07:45:56;16.42;;;2.08;;
35558;SDS011;21661;50.794;-1.066;2022-12-29T07:48:21;11.80;;;2.30;;
35558;SDS011;21661;50.794;-1.066;2022-12-29T07:50:47;28.15;;;3.38;;
35558;SDS011;21661;50.794;-1.066;2022-12-29T07:53:13;20.00;;;2.70;;
35558;SDS011;21661;50.794;-1.066;2022-12-29T07:55:39;12.07;;;2.03;;
35558;SDS011;21661;50.794;-1.066;2022-12-29T07:58:05;13.70;;;2.20;;
35558;SDS011;21661;50.794;-1.066;2022-12-29T08:00:31;22.58;;;2.63;;
35558;SDS011;21661;50.794;-1.066;2022-12-29T08:02:56;20.08;;;2.95;;
35558;SDS011;21661;50.794;-1.066;2022-12-29T08:05:22;24.67;;;2.92;;
35558;SDS011;21661;50.794;-1.066;2022-12-29T08:07:47;18.38;;;2.75;;
35558;SDS011;21661;50.794;-1.066;2022-12-29T08:10:13;11.00;;;2.58;;
35558;SDS011;21661;50.794;-1.066;2022-12-29T08:12:40;20.50;;;3.42;;
35558;SDS011;21661;50.794;-1.066;2022-12-29T08:15:07;17.20;;;2.28;;
35558;SDS011;21661;50.794;-1.066;2022-12-29T08:17:33;16.73;;;3.20;;
35558;SDS011;21661;50.794;-1.066;2022-12-29T08:19:59;13.70;;;2.38;;
35558;SDS011;21661;50.794;-1.066;2022-12-29T08:22:25;14.80;;;2.38;;
35558;SDS011;21661;50.794;-1.066;2022-12-29T08:24:51;11.38;;;2.08;;
35558;SDS011;21661;50.794;-1.066;2022-12-29T08:27:16;15.93;;;1.85;;
35558;SDS011;21661;50.794;-1.066;2022-12-29T08:29:42;15.60;;;2.45;;
35558;SDS011;21661;50.794;-1.066;2022-12-29T08:32:08;14.10;;;2.53;;
35558;SDS011;21661;50.794;-1.066;2022-12-29T08:34:34;13.20;;;2.15;;
35558;SDS011;21661;50.794;-1.066;2022-12-29T08:36:59;13.45;;;2.20;;
35558;SDS011;21661;50.794;-1.066;2022-12-29T08:39:25;10.18;;;1.58;;
35558;SDS011;21661;50.794;-1.066;2022-12-29T08:41:50;11.23;;;1.45;;
35558;SDS011;21661;50.794;-1.066;2022-12-29T08:44:16;8.88;;;1.50;;
35558;SDS011;21661;50.794;-1.066;2022-12-29T08:46:42;15.55;;;1.60;;
35558;SDS011;21661;50.794;-1.066;2022-12-29T08:49:07;8.20;;;1.58;;
35558;SDS011;21661;50.794;-1.066;2022-12-29T08:51:33;11.63;;;1.40;;
35558;SDS011;21661;50.794;-1.066;2022-12-29T08:53:59;11.45;;;2.00;;
35558;SDS011;21661;50.794;-1.066;2022-12-29T08:56:25;10.85;;;1.45;;
35558;SDS011;21661;50.794;-1.066;2022-12-29T08:58:51;16.38;;;1.60;;
35558;SDS011;21661;50.794;-1.066;2022-12-29T09:01:18;8.38;;;1.85;;
35558;SDS011;21661;50.794;-1.066;2022-12-29T09:03:44;10.18;;;1.77;;
35558;SDS011;21661;50.794;-1.066;2022-12-29T09:06:10;18.20;;;2.13;;
35558;SDS011;21661;50.794;-1.066;2022-12-29T09:08:36;11.18;;;1.88;;
35558;SDS011;21661;50.794;-1.066;2022-12-29T09:11:35;16.90;;;2.10;;
35558;SDS011;21661;50.794;-1.066;2022-12-29T09:13:54;10.10;;;1.23;;
35558;SDS011;21661;50.794;-1.066;2022-12-29T09:16:21;9.45;;;1.73;;
35558;SDS011;21661;50.794;-1.066;2022-12-29T09:18:48;11.38;;;2.58;;
35558;SDS011;21661;50.794;-1.066;2022-12-29T09:21:13;10.52;;;1.65;;
35558;SDS011;21661;50.794;-1.066;2022-12-29T09:23:39;12.50;;;1.55;;
35558;SDS011;21661;50.794;-1.066;2022-12-29T09:26:05;10.30;;;1.50;;
35558;SDS011;21661;50.794;-1.066;2022-12-29T09:28:32;14.00;;;1.55;;
35558;SDS011;21661;50.794;-1.066;2022-12-29T09:30:58;14.32;;;1.63;;
35558;SDS011;21661;50.794;-1.066;2022-12-29T09:33:24;11.40;;;1.80;;
35558;SDS011;21661;50.794;-1.066;2022-12-29T09:35:50;9.27;;;1.95;;
35558;SDS011;21661;50.794;-1.066;2022-12-29T09:38:18;10.07;;;1.20;;
35558;SDS011;21661;50.794;-1.066;2022-12-29T09:40:45;9.38;;;1.67;;
35558;SDS011;21661;50.794;-1.066;2022-12-29T09:43:24;9.80;;;1.42;;
35558;SDS011;21661;50.794;-1.066;2022-12-29T09:46:18;11.35;;;1.30;;
35558;SDS011;21661;50.794;-1.066;2022-12-29T09:48:59;7.88;;;1.40;;
35558;SDS011;21661;50.794;-1.066;2022-12-29T09:51:33;14.47;;;2.07;;
35558;SDS011;21661;50.794;-1.066;2022-12-29T09:54:24;6.30;;;1.25;;
35558;SDS011;21661;50.794;-1.066;2022-12-29T09:56:53;11.02;;;1.15;;
35558;SDS011;21661;50.794;-1.066;2022-12-29T09:59:22;9.13;;;1.15;;
35558;SDS011;21661;50.794;-1.066;2022-12-29T10:02:20;8.07;;;1.40;;
35558;SDS011;21661;50.794;-1.066;2022-12-29T10:04:56;8.60;;;1.40;;
35558;SDS011;21661;50.794;-1.066;2022-12-29T10:07:40;10.02;;;1.35;;
35558;SDS011;21661;50.794;-1.066;2022-12-29T10:10:43;11.85;;;2.63;;
35558;SDS011;21661;50.794;-1.066;2022-12-29T10:13:17;10.60;;;1.30;;
35558;SDS011;21661;50.794;-1.066;2022-12-29T10:16:11;13.00;;;1.45;;
35558;SDS011;21661;50.794;-1.066;2022-12-29T10:22:00;12.45;;;2.17;;
35558;SDS011;21661;50.794;-1.066;2022-12-29T10:24:39;12.30;;;2.33;;
35558;SDS011;21661;50.794;-1.066;2022-12-29T10:27:12;12.70;;;1.70;;
35558;SDS011;21661;50.794;-1.066;2022-12-29T10:32:21;6.80;;;1.98;;
35558;SDS011;21661;50.794;-1.066;2022-12-29T10:34:55;13.80;;;2.08;;
35558;SDS011;21661;50.794;-1.066;2022-12-29T10:37:27;9.27;;;1.60;;
35558;SDS011;21661;50.794;-1.066;2022-12-29T10:40:11;9.27;;;1.52;;
35558;SDS011;21661;50.794;-1.066;2022-12-29T10:42:50;11.68;;;2.05;;
35558;SDS011;21661;50.794;-1.066;2022-12-29T10:45:19;11.55;;;3.10;;
35558;SDS011;21661;50.794;-1.066;2022-12-29T10:48:09;11.38;;;1.85;;
35558;SDS011;21661;50.794;-1.066;2022-12-29T10:50:42;14.02;;;1.98;;
35558;SDS011;21661;50.794;-1.066;2022-12-29T10:53:08;14.38;;;1.70;;
35558;SDS011;21661;50.794;-1.066;2022-12-29T10:55:49;10.70;;;2.70;;
35558;SDS011;21661;50.794;-1.066;2022-12-29T10:58:16;12.02;;;2.15;;
35558;SDS011;21661;50.794;-1.066;2022-12-29T11:00:43;13.23;;;2.40;;
35558;SDS011;21661;50.794;-1.066;2022-12-29T11:06:24;14.60;;;2.22;;
35558;SDS011;21661;50.794;-1.066;2022-12-29T11:09:12;20.05;;;2.33;;
35558;SDS011;21661;50.794;-1.066;2022-12-29T11:11:46;15.82;;;2.05;;
35558;SDS011;21661;50.794;-1.066;2022-12-29T11:14:18;15.18;;;2.38;;
35558;SDS011;21661;50.794;-1.066;2022-12-29T11:16:56;15.45;;;2.53;;
35558;SDS011;21661;50.794;-1.066;2022-12-29T11:19:27;16.55;;;3.25;;
35558;SDS011;21661;50.794;-1.066;2022-12-29T11:21:56;17.45;;;3.47;;
35558;SDS011;21661;50.794;-1.066;2022-12-29T11:24:50;11.18;;;1.88;;
35558;SDS011;21661;50.794;-1.066;2022-12-29T11:29:44;20.02;;;2.65;;
35558;SDS011;21661;50.794;-1.066;2022-12-29T11:32:20;13.10;;;1.95;;
35558;SDS011;21661;50.794;-1.066;2022-12-29T11:34:47;11.02;;;2.28;;
35558;SDS011;21661;50.794;-1.066;2022-12-29T11:37:18;9.98;;;1.85;;
35558;SDS011;21661;50.794;-1.066;2022-12-29T11:40:03;11.18;;;2.00;;
35558;SDS011;21661;50.794;-1.066;2022-12-29T11:45:15;11.55;;;1.48;;
35558;SDS011;21661;50.794;-1.066;2022-12-29T11:47:49;10.00;;;1.75;;
35558;SDS011;21661;50.794;-1.066;2022-12-29T11:50:17;14.15;;;2.28;;
35558;SDS011;21661;50.794;-1.066;2022-12-29T11:52:46;15.05;;;1.90;;
35558;SDS011;21661;50.794;-1.066;2022-12-29T11:55:23;12.90;;;3.63;;
35558;SDS011;21661;50.794;-1.066;2022-12-29T11:57:52;12.02;;;2.20;;
35558;SDS011;21661;50.794;-1.066;2022-12-29T12:00:19;15.68;;;2.65;;
35558;SDS011;21661;50.794;-1.066;2022-12-29T12:02:58;15.30;;;2.35;;
35558;SDS011;21661;50.794;-1.066;2022-12-29T12:05:35;18.42;;;2.72;;
35558;SDS011;21661;50.794;-1.066;2022-12-29T12:10:44;21.70;;;3.72;;
35558;SDS011;21661;50.794;-1.066;2022-12-29T12:13:19;19.92;;;2.88;;
35558;SDS011;21661;50.794;-1.066;2022-12-29T12:16:08;22.23;;;3.35;;
35558;SDS011;21661;50.794;-1.066;2022-12-29T12:24:03;21.42;;;3.05;;
35558;SDS011;21661;50.794;-1.066;2022-12-29T12:26:41;17.65;;;2.28;;
35558;SDS011;21661;50.794;-1.066;2022-12-29T12:29:25;24.10;;;3.33;;
35558;SDS011;21661;50.794;-1.066;2022-12-29T12:34:52;17.52;;;2.53;;
35558;SDS011;21661;50.794;-1.066;2022-12-29T12:37:28;19.90;;;3.92;;
35558;SDS011;21661;50.794;-1.066;2022-12-29T12:57:00;19.70;;;3.22;;
35558;SDS011;21661;50.794;-1.066;2022-12-29T12:59:50;17.50;;;2.78;;
35558;SDS011;21661;50.794;-1.066;2022-12-29T13:27:10;11.48;;;2.13;;
35558;SDS011;21661;50.794;-1.066;2022-12-29T13:29:50;15.23;;;2.45;;
35558;SDS011;21661;50.794;-1.066;2022-12-29T13:37:50;16.85;;;3.15;;
35558;SDS011;21661;50.794;-1.066;2022-12-29T13:40:21;19.92;;;2.70;;
35558;SDS011;21661;50.794;-1.066;2022-12-29T13:42:50;19.42;;;3.45;;
35558;SDS011;21661;50.794;-1.066;2022-12-29T13:45:19;21.10;;;2.58;;
35558;SDS011;21661;50.794;-1.066;2022-12-29T13:50:48;16.80;;;2.47;;
35558;SDS011;21661;50.794;-1.066;2022-12-29T13:56:13;15.40;;;2.92;;
35558;SDS011;21661;50.794;-1.066;2022-12-29T14:04:26;14.93;;;2.63;;
35558;SDS011;21661;50.794;-1.066;2022-12-29T14:07:00;16.25;;;2.60;;
35558;SDS011;21661;50.794;-1.066;2022-12-29T14:09:35;13.88;;;2.08;;
35558;SDS011;21661;50.794;-1.066;2022-12-29T14:12:21;17.77;;;2.63;;
35558;SDS011;21661;50.794;-1.066;2022-12-29T14:15:28;12.57;;;2.20;;
35558;SDS011;21661;50.794;-1.066;2022-12-29T14:18:05;16.35;;;2.33;;
35558;SDS011;21661;50.794;-1.066;2022-12-29T14:20:52;13.38;;;2.08;;
35558;SDS011;21661;50.794;-1.066;2022-12-29T14:26:09;15.50;;;2.45;;
35558;SDS011;21661;50.794;-1.066;2022-12-29T14:28:37;14.98;;;2.28;;
35558;SDS011;21661;50.794;-1.066;2022-12-29T14:33:38;13.30;;;2.85;;
35558;SDS011;21661;50.794;-1.066;2022-12-29T14:38:58;15.10;;;3.63;;
35558;SDS011;21661;50.794;-1.066;2022-12-29T14:41:26;17.08;;;3.08;;
35558;SDS011;21661;50.794;-1.066;2022-12-29T14:46:42;18.02;;;3.38;;
35558;SDS011;21661;50.794;-1.066;2022-12-29T14:49:53;18.10;;;3.35;;
35558;SDS011;21661;50.794;-1.066;2022-12-29T14:52:18;25.42;;;4.60;;
35558;SDS011;21661;50.794;-1.066;2022-12-29T14:54:47;15.07;;;2.58;;
35558;SDS011;21661;50.794;-1.066;2022-12-29T15:00:36;14.57;;;2.78;;
35558;SDS011;21661;50.794;-1.066;2022-12-29T15:08:06;11.98;;;2.08;;
35558;SDS011;21661;50.794;-1.066;2022-12-29T15:10:35;13.40;;;2.85;;
35558;SDS011;21661;50.794;-1.066;2022-12-29T15:13:18;15.63;;;3.23;;
35558;SDS011;21661;50.794;-1.066;2022-12-29T15:15:47;16.58;;;2.95;;
35558;SDS011;21661;50.794;-1.066;2022-12-29T15:18:23;14.75;;;2.25;;
35558;SDS011;21661;50.794;-1.066;2022-12-29T15:20:53;15.02;;;2.45;;
35558;SDS011;21661;50.794;-1.066;2022-12-29T15:23:21;20.27;;;2.63;;
35558;SDS011;21661;50.794;-1.066;2022-12-29T15:25:49;15.82;;;2.60;;
35558;SDS011;21661;50.794;-1.066;2022-12-29T15:28:20;15.93;;;2.50;;
35558;SDS011;21661;50.794;-1.066;2022-12-29T15:30:51;19.23;;;3.10;;
35558;SDS011;21661;50.794;-1.066;2022-12-29T15:35:44;19.20;;;2.72;;
35558;SDS011;21661;50.794;-1.066;2022-12-29T15:38:16;12.80;;;2.78;;
35558;SDS011;21661;50.794;-1.066;2022-12-29T15:40:54;18.10;;;2.50;;
35558;SDS011;21661;50.794;-1.066;2022-12-29T15:45:52;14.82;;;2.42;;
35558;SDS011;21661;50.794;-1.066;2022-12-29T15:48:20;16.40;;;2.15;;
35558;SDS011;21661;50.794;-1.066;2022-12-29T15:50:49;15.88;;;2.90;;
35558;SDS011;21661;50.794;-1.066;2022-12-29T15:53:19;31.02;;;3.90;;
35558;SDS011;21661;50.794;-1.066;2022-12-29T15:55:53;26.80;;;3.40;;
35558;SDS011;21661;50.794;-1.066;2022-12-29T15:58:25;17.23;;;2.90;;
35558;SDS011;21661;50.794;-1.066;2022-12-29T16:00:54;19.50;;;3.72;;
35558;SDS011;21661;50.794;-1.066;2022-12-29T16:03:22;18.80;;;2.60;;
35558;SDS011;21661;50.794;-1.066;2022-12-29T16:05:51;12.55;;;2.65;;
35558;SDS011;21661;50.794;-1.066;2022-12-29T16:08:32;20.55;;;2.60;;
35558;SDS011;21661;50.794;-1.066;2022-12-29T16:13:57;15.77;;;2.88;;
35558;SDS011;21661;50.794;-1.066;2022-12-29T16:16:28;13.10;;;2.33;;
35558;SDS011;21661;50.794;-1.066;2022-12-29T16:19:01;14.93;;;2.53;;
35558;SDS011;21661;50.794;-1.066;2022-12-29T16:21:36;22.95;;;4.60;;
35558;SDS011;21661;50.794;-1.066;2022-12-29T16:24:04;11.57;;;2.60;;
35558;SDS011;21661;50.794;-1.066;2022-12-29T16:26:32;16.30;;;3.47;;
35558;SDS011;21661;50.794;-1.066;2022-12-29T16:28:59;16.48;;;3.03;;
35558;SDS011;21661;50.794;-1.066;2022-12-29T16:36:55;16.90;;;3.25;;
35558;SDS011;21661;50.794;-1.066;2022-12-29T16:42:01;20.25;;;5.20;;
35558;SDS011;21661;50.794;-1.066;2022-12-29T16:45:17;18.90;;;4.45;;
35558;SDS011;21661;50.794;-1.066;2022-12-29T16:48:10;20.75;;;5.13;;
35558;SDS011;21661;50.794;-1.066;2022-12-29T16:50:44;19.48;;;6.25;;
35558;SDS011;21661;50.794;-1.066;2022-12-29T16:53:21;19.88;;;7.30;;
35558;SDS011;21661;50.794;-1.066;2022-12-29T16:55:51;26.88;;;7.03;;
35558;SDS011;21661;50.794;-1.066;2022-12-29T16:58:22;30.52;;;6.50;;
35558;SDS011;21661;50.794;-1.066;2022-12-29T17:00:54;20.20;;;7.63;;
35558;SDS011;21661;50.794;-1.066;2022-12-29T17:03:21;20.63;;;7.30;;
35558;SDS011;21661;50.794;-1.066;2022-12-29T17:05:48;24.92;;;7.82;;
35558;SDS011;21661;50.794;-1.066;2022-12-29T17:08:17;27.15;;;7.63;;
35558;SDS011;21661;50.794;-1.066;2022-12-29T17:10:50;17.27;;;4.97;;
35558;SDS011;21661;50.794;-1.066;2022-12-29T17:13:37;16.42;;;4.63;;
35558;SDS011;21661;50.794;-1.066;2022-12-29T17:16:03;22.30;;;4.13;;
35558;SDS011;21661;50.794;-1.066;2022-12-29T17:18:31;21.90;;;5.72;;